Time;durP1;ratioP1;P1;durP2;ratioP2;P2;SDS_P1;SDS_P2;PMS_P1;PMS_P2;Temp;Humidity;BMP_temperature;BMP_pressure;BME280_temperature;BME280_humidity;BME280_pressure;Samples;Min_cycle;Max_cycle;Signal;HPM_P1;HPM_P2
2023/03/05 00:01:34;;;;;;;19.30;3.25;;;;;;;7.22;57.67;101141.31;5061466;27;97170;-72
2023/03/05 00:04:01;;;;;;;21.17;3.83;;;;;;;7.31;57.98;101144.69;5068267;27;96858;-72
2023/03/05 00:06:29;;;;;;;18.27;3.10;;;;;;;7.51;57.74;101135.59;5063022;27;101251;-72
2023/03/05 00:08:57;;;;;;;19.65;2.95;;;;;;;7.60;57.76;101132.81;5066769;27;98354;-72
2023/03/05 00:11:28;;;;;;;19.00;3.00;;;;;;;7.17;59.95;101124.75;5062654;27;96765;-71
2023/03/05 00:13:55;;;;;;;18.02;2.95;;;;;;;6.96;61.90;101124.19;5057654;27;96831;-70
2023/03/05 00:16:25;;;;;;;18.10;2.95;;;;;;;7.23;61.29;101126.41;5066663;27;98870;-72
2023/03/05 00:18:52;;;;;;;20.70;3.38;;;;;;;7.36;60.63;101117.44;5063921;27;101463;-72
2023/03/05 00:21:21;;;;;;;26.75;3.25;;;;;;;7.36;60.73;101109.53;5064606;27;97048;-71
2023/03/05 00:23:49;;;;;;;15.38;2.83;;;;;;;7.38;61.10;101106.91;5068385;27;98960;-72
2023/03/05 00:26:16;;;;;;;24.95;3.17;;;;;;;7.71;60.50;101102.81;5056658;27;98863;-72
2023/03/05 00:28:42;;;;;;;17.65;2.97;;;;;;;7.43;60.52;101100.66;5063311;27;98808;-73
2023/03/05 00:31:09;;;;;;;18.13;2.40;;;;;;;7.48;60.54;101096.19;5068191;27;96694;-72
2023/03/05 00:33:36;;;;;;;17.08;3.15;;;;;;;7.36;60.45;101085.88;5068672;27;96909;-71
2023/03/05 00:36:06;;;;;;;14.68;3.22;;;;;;;7.31;60.66;101087.72;5059941;27;97968;-72
2023/03/05 00:38:34;;;;;;;17.95;2.83;;;;;;;7.26;60.60;101088.69;5062325;27;99357;-73
2023/03/05 00:41:01;;;;;;;22.98;3.00;;;;;;;7.17;60.29;101080.06;5058825;27;96889;-71
2023/03/05 00:43:28;;;;;;;11.20;2.03;;;;;;;7.22;60.32;101080.84;5061624;27;96910;-72
2023/03/05 00:45:55;;;;;;;22.33;3.45;;;;;;;7.45;59.62;101074.34;5063324;27;98263;-73
2023/03/05 00:48:22;;;;;;;30.35;3.58;;;;;;;7.27;59.62;101070.28;5067622;27;98767;-72
2023/03/05 00:50:50;;;;;;;13.18;2.58;;;;;;;7.37;59.46;101068.34;5068412;27;96737;-72
2023/03/05 00:53:16;;;;;;;24.92;2.63;;;;;;;7.14;59.36;101063.50;5062258;27;97117;-72
2023/03/05 00:55:43;;;;;;;19.40;2.20;;;;;;;7.28;58.51;101066.75;5055481;27;101185;-72
2023/03/05 00:58:09;;;;;;;18.05;2.28;;;;;;;7.19;58.80;101056.41;5065031;27;98112;-73
2023/03/05 01:00:40;;;;;;;14.13;2.10;;;;;;;7.31;58.01;101058.81;5064807;27;96725;-73
2023/03/05 01:03:06;;;;;;;16.70;2.47;;;;;;;6.75;58.86;101052.72;5059223;27;96984;-72
2023/03/05 01:05:33;;;;;;;19.10;2.60;;;;;;;7.04;57.75;101046.13;5070849;27;98878;-73
2023/03/05 01:08:01;;;;;;;17.85;2.55;;;;;;;7.24;56.37;101040.53;5065736;27;98027;-72
2023/03/05 01:10:27;;;;;;;13.30;2.22;;;;;;;7.16;56.92;101036.28;5062803;27;99085;-74
2023/03/05 01:12:54;;;;;;;17.00;2.13;;;;;;;7.07;55.86;101038.19;5070015;27;97929;-73
2023/03/05 01:15:21;;;;;;;21.55;2.45;;;;;;;7.04;56.25;101038.25;5068438;27;99123;-72
2023/03/05 01:17:47;;;;;;;14.27;1.70;;;;;;;7.09;55.66;101034.63;5071266;27;99193;-72
2023/03/05 01:20:16;;;;;;;14.23;1.92;;;;;;;7.01;54.92;101041.81;5072809;27;96918;-73
2023/03/05 01:22:43;;;;;;;19.40;2.67;;;;;;;6.89;54.76;101028.88;5068475;27;96710;-73
2023/03/05 01:25:12;;;;;;;15.65;3.05;;;;;;;6.97;54.48;101031.34;5067490;27;98889;-72
2023/03/05 01:27:38;;;;;;;14.60;2.10;;;;;;;7.12;53.49;101033.72;5061134;27;98934;-73
2023/03/05 01:30:06;;;;;;;15.73;2.03;;;;;;;7.11;52.68;101029.38;5067820;27;96761;-74
2023/03/05 01:32:33;;;;;;;16.58;2.63;;;;;;;7.16;52.84;101017.88;5067085;27;97028;-72
2023/03/05 01:35:00;;;;;;;9.73;1.70;;;;;;;7.02;51.39;101013.78;5059295;27;99295;-72
2023/03/05 01:37:27;;;;;;;15.25;2.05;;;;;;;6.93;51.42;101022.66;5054211;27;99703;-72
2023/03/05 01:39:53;;;;;;;16.95;3.15;;;;;;;7.07;50.73;101025.06;5063621;27;97077;-71
2023/03/05 01:42:21;;;;;;;14.57;1.90;;;;;;;7.05;50.94;101025.09;5070070;27;96836;-72
2023/03/05 01:45:01;;;;;;;15.20;2.13;;;;;;;6.94;50.66;101015.66;5062698;27;102561;-72
2023/03/05 01:47:27;;;;;;;11.68;1.50;;;;;;;7.10;50.11;101006.59;5067872;27;98988;-73
2023/03/05 01:49:54;;;;;;;11.63;1.88;;;;;;;6.52;49.59;101015.41;5068115;27;97667;-73
2023/03/05 01:52:23;;;;;;;8.55;1.48;;;;;;;6.36;50.44;101020.03;5063881;27;96785;-72
2023/03/05 01:54:53;;;;;;;14.65;1.77;;;;;;;6.45;49.50;101008.50;5067179;27;99519;-72
2023/03/05 01:57:25;;;;;;;14.93;1.52;;;;;;;5.97;50.56;101012.69;5064205;27;98763;-72
2023/03/05 01:59:55;;;;;;;12.55;1.58;;;;;;;6.35;49.44;101007.78;5069436;27;97046;-72
2023/03/05 02:02:22;;;;;;;12.43;2.30;;;;;;;6.14;49.82;101012.47;5068813;27;97349;-72
2023/03/05 02:04:53;;;;;;;7.50;1.33;;;;;;;6.03;49.66;101014.38;5065749;27;98807;-73
2023/03/05 02:07:20;;;;;;;12.98;1.45;;;;;;;5.87;50.31;101011.91;5060094;27;98867;-71
2023/03/05 02:09:49;;;;;;;10.95;1.50;;;;;;;5.81;49.52;101008.47;5067168;27;97277;-72
2023/03/05 02:12:16;;;;;;;8.25;1.58;;;;;;;6.15;49.13;101014.19;5063768;27;98833;-72
2023/03/05 02:14:46;;;;;;;14.63;1.70;;;;;;;5.91;49.26;100999.63;5060884;27;98871;-72
2023/03/05 02:17:13;;;;;;;9.55;1.42;;;;;;;6.29;48.28;101002.63;5067569;27;100586;-74
2023/03/05 02:19:51;;;;;;;11.52;1.60;;;;;;;6.16;47.92;101005.44;5067987;27;96741;-72
2023/03/05 02:22:21;;;;;;;7.22;1.33;;;;;;;6.28;47.98;101000.91;5059038;27;98373;-71
2023/03/05 02:24:48;;;;;;;11.38;1.40;;;;;;;6.53;46.67;100996.16;5058061;27;98913;-72
2023/03/05 02:27:15;;;;;;;8.98;1.50;;;;;;;6.35;46.48;100981.56;5059979;27;99066;-72
2023/03/05 02:29:44;;;;;;;10.45;1.33;;;;;;;6.66;46.40;100981.06;5056137;27;97344;-72
2023/03/05 02:32:11;;;;;;;10.70;1.58;;;;;;;6.91;45.94;100986.78;5063455;27;97032;-72
2023/03/05 02:34:38;;;;;;;11.70;1.48;;;;;;;6.74;46.45;100979.19;5054804;27;98963;-73
2023/03/05 02:37:07;;;;;;;9.95;1.55;;;;;;;6.86;45.42;100971.13;5065710;27;99046;-72
2023/03/05 02:39:35;;;;;;;14.07;1.63;;;;;;;6.55;46.04;100970.75;5053842;27;97282;-71
2023/03/05 02:42:02;;;;;;;12.82;2.40;;;;;;;6.10;47.03;100968.78;5064399;27;97651;-73
2023/03/05 02:44:28;;;;;;;11.27;1.50;;;;;;;6.24;47.30;100964.19;5060279;27;99632;-72
2023/03/05 02:46:54;;;;;;;6.57;1.00;;;;;;;6.42;46.72;100961.31;5062566;27;99599;-73
2023/03/05 02:49:21;;;;;;;12.45;1.65;;;;;;;6.23;47.24;100959.88;5067981;27;97682;-73
2023/03/05 02:51:47;;;;;;;7.10;0.80;;;;;;;6.15;47.12;100953.84;5057615;27;96877;-73
2023/03/05 02:54:14;;;;;;;9.48;1.25;;;;;;;6.04;47.85;100950.53;5066812;27;99131;-72
2023/03/05 02:56:42;;;;;;;10.85;1.50;;;;;;;6.30;47.24;100951.03;5068610;27;98781;-71
2023/03/05 02:59:08;;;;;;;10.00;1.40;;;;;;;6.43;47.17;100941.19;5067064;27;96759;-72
2023/03/05 03:01:35;;;;;;;11.15;2.63;;;;;;;6.51;47.44;100950.66;5069000;27;98684;-71
2023/03/05 03:04:01;;;;;;;10.18;1.30;;;;;;;6.96;46.48;100943.78;5061148;27;101824;-72
2023/03/05 03:06:28;;;;;;;8.63;1.55;;;;;;;7.05;45.88;100948.00;5065753;27;98832;-72
2023/03/05 03:08:54;;;;;;;5.63;1.55;;;;;;;7.01;46.20;100939.34;5064882;27;96880;-72
2023/03/05 03:11:21;;;;;;;12.82;1.42;;;;;;;6.74;46.22;100938.06;5061879;27;97117;-71
2023/03/05 03:13:48;;;;;;;12.23;2.05;;;;;;;6.67;46.40;100939.03;5068280;27;100612;-71
2023/03/05 03:16:15;;;;;;;11.88;1.58;;;;;;;6.58;46.70;100943.56;5065170;27;101472;-72
2023/03/05 03:18:42;;;;;;;6.28;0.85;;;;;;;6.64;46.66;100935.59;5067048;27;97035;-72
2023/03/05 03:21:09;;;;;;;10.18;1.75;;;;;;;6.74;46.42;100932.78;5066293;27;97371;-71
2023/03/05 03:23:35;;;;;;;7.95;1.20;;;;;;;6.72;46.53;100933.69;5066712;27;99252;-72
2023/03/05 03:26:01;;;;;;;8.60;1.33;;;;;;;6.66;46.99;100921.53;5065640;27;100248;-72
2023/03/05 03:28:28;;;;;;;4.03;1.10;;;;;;;6.57;47.07;100921.69;5066031;27;96803;-71
2023/03/05 03:30:56;;;;;;;10.43;1.23;;;;;;;6.80;46.97;100914.31;5064043;27;97787;-72
2023/03/05 03:33:22;;;;;;;8.18;1.80;;;;;;;6.96;46.17;100907.00;5066051;27;99248;-72
2023/03/05 03:35:48;;;;;;;4.63;1.27;;;;;;;7.00;46.20;100908.69;5058496;27;97503;-73
2023/03/05 03:38:15;;;;;;;8.93;2.00;;;;;;;6.84;46.48;100916.84;5064074;27;96728;-71
2023/03/05 03:40:42;;;;;;;6.97;1.30;;;;;;;6.64;47.10;100907.56;5064420;27;100281;-73
2023/03/05 03:43:09;;;;;;;7.05;1.33;;;;;;;6.34;47.84;100913.31;5060935;27;98876;-73
2023/03/05 03:45:35;;;;;;;6.03;1.25;;;;;;;6.31;48.27;100910.72;5055851;27;98989;-72
2023/03/05 03:48:03;;;;;;;7.30;1.35;;;;;;;6.39;48.02;100914.97;5063626;27;97362;-72
2023/03/05 03:50:29;;;;;;;10.50;1.10;;;;;;;6.61;47.58;100905.00;5066944;27;97519;-73
2023/03/05 03:52:56;;;;;;;12.18;1.63;;;;;;;6.52;47.90;100897.28;5057188;27;100321;-72
2023/03/05 03:55:22;;;;;;;4.30;1.15;;;;;;;6.27;48.65;100899.44;5063742;27;98404;-72
2023/03/05 03:57:48;;;;;;;8.98;1.25;;;;;;;6.23;49.41;100905.63;5063439;27;98922;-73
2023/03/05 04:00:16;;;;;;;17.73;1.40;;;;;;;6.09;49.49;100898.84;5068509;27;96816;-72
2023/03/05 04:02:42;;;;;;;8.20;0.90;;;;;;;5.85;50.51;100905.25;5068592;27;97924;-72
2023/03/05 04:05:10;;;;;;;7.15;1.77;;;;;;;5.52;51.69;100901.31;5066453;27;98241;-72
2023/03/05 04:07:37;;;;;;;10.05;1.17;;;;;;;5.73;51.52;100895.81;5067045;27;97744;-73
2023/03/05 04:10:04;;;;;;;11.65;1.45;;;;;;;5.78;51.13;100890.50;5063901;27;97403;-72
2023/03/05 04:12:31;;;;;;;7.18;2.25;;;;;;;5.76;50.71;100894.91;5065700;27;98774;-74
2023/03/05 04:14:57;;;;;;;8.40;1.08;;;;;;;5.49;52.17;100883.91;5065952;27;97885;-74
2023/03/05 04:17:24;;;;;;;10.50;1.20;;;;;;;5.83;51.80;100893.94;5064821;27;97831;-74
2023/03/05 04:19:50;;;;;;;4.20;1.17;;;;;;;5.65;51.93;100881.91;5064205;27;96946;-73
2023/03/05 04:22:18;;;;;;;8.05;1.60;;;;;;;5.91;51.25;100885.09;5063012;27;101108;-73
2023/03/05 04:24:45;;;;;;;11.68;1.35;;;;;;;5.88;52.02;100884.28;5058137;27;98740;-73
2023/03/05 04:27:11;;;;;;;9.57;1.23;;;;;;;5.91;51.80;100879.84;5061299;27;98841;-74
2023/03/05 04:29:38;;;;;;;7.45;1.20;;;;;;;5.87;51.82;100878.16;5060797;27;97916;-72
2023/03/05 04:32:05;;;;;;;11.43;1.35;;;;;;;5.93;51.94;100885.06;5062395;27;99171;-72
2023/03/05 04:34:32;;;;;;;6.95;1.05;;;;;;;5.70;52.40;100874.88;5058565;27;99511;-71
2023/03/05 04:36:58;;;;;;;6.72;1.00;;;;;;;5.74;52.71;100875.69;5066722;27;96871;-73
2023/03/05 04:39:26;;;;;;;7.40;1.15;;;;;;;5.82;52.41;100872.09;5057329;27;97220;-71
2023/03/05 04:41:52;;;;;;;10.25;2.33;;;;;;;5.81;52.45;100864.25;5057892;27;99133;-72
2023/03/05 04:44:20;;;;;;;8.70;1.55;;;;;;;5.83;52.67;100865.97;5059282;27;97499;-72
2023/03/05 04:46:47;;;;;;;7.50;1.33;;;;;;;5.53;53.51;100856.75;5058844;27;97210;-72
2023/03/05 04:49:14;;;;;;;9.88;1.42;;;;;;;5.61;53.69;100861.88;5065531;27;96850;-71
2023/03/05 04:51:41;;;;;;;10.63;1.85;;;;;;;5.69;53.20;100862.66;5065565;27;99715;-72
2023/03/05 04:54:08;;;;;;;7.35;1.20;;;;;;;5.42;54.44;100858.66;5061507;27;99536;-72
2023/03/05 04:56:35;;;;;;;7.60;1.45;;;;;;;5.57;53.95;100854.97;5059448;27;99099;-72
2023/03/05 04:59:02;;;;;;;12.85;1.17;;;;;;;5.66;53.56;100854.81;5071270;27;97100;-71
2023/03/05 05:01:28;;;;;;;4.75;1.40;;;;;;;5.74;54.08;100860.84;5063653;27;99960;-72
2023/03/05 05:03:55;;;;;;;10.20;1.48;;;;;;;5.91;53.27;100853.63;5067496;27;99522;-71
2023/03/05 05:06:21;;;;;;;9.50;1.58;;;;;;;5.94;53.42;100858.84;5064008;27;97017;-71
2023/03/05 05:08:47;;;;;;;7.80;1.27;;;;;;;5.70;54.21;100853.03;5065144;27;97004;-71
2023/03/05 05:11:14;;;;;;;6.88;1.25;;;;;;;5.36;55.09;100857.84;5067854;27;98887;-72
2023/03/05 05:13:42;;;;;;;9.88;2.30;;;;;;;5.38;55.75;100856.09;5066744;27;101186;-71
2023/03/05 05:16:09;;;;;;;7.38;1.50;;;;;;;5.47;55.51;100853.34;5064648;27;98911;-71
2023/03/05 05:18:35;;;;;;;7.05;1.40;;;;;;;5.67;54.17;100853.06;5065062;27;97450;-72
2023/03/05 05:21:02;;;;;;;10.20;1.40;;;;;;;5.84;54.13;100858.97;5060445;27;99646;-73
2023/03/05 05:23:28;;;;;;;7.88;1.58;;;;;;;5.91;53.85;100848.38;5068335;27;99017;-73
2023/03/05 05:25:58;;;;;;;10.15;1.25;;;;;;;5.64;54.34;100861.88;5064460;27;97348;-72
2023/03/05 05:28:25;;;;;;;9.82;1.33;;;;;;;5.68;54.71;100858.31;5060681;27;97149;-72
2023/03/05 05:30:54;;;;;;;9.85;1.88;;;;;;;5.85;54.17;100848.44;5065435;27;99220;-73
2023/03/05 05:33:21;;;;;;;7.45;1.23;;;;;;;5.45;55.69;100852.47;5067404;27;97645;-73
2023/03/05 05:35:47;;;;;;;9.90;1.40;;;;;;;5.64;54.96;100854.00;5060865;27;96984;-72
2023/03/05 05:38:14;;;;;;;11.43;1.20;;;;;;;5.54;55.72;100845.38;5065515;27;97885;-72
2023/03/05 05:40:41;;;;;;;12.63;1.13;;;;;;;5.48;56.19;100847.22;5061635;27;99751;-73
2023/03/05 05:43:08;;;;;;;9.20;1.70;;;;;;;5.57;55.95;100852.34;5066208;27;99175;-73
2023/03/05 05:45:37;;;;;;;11.40;1.33;;;;;;;5.55;55.96;100839.25;5060880;27;98613;-72
2023/03/05 05:48:04;;;;;;;6.15;1.38;;;;;;;5.57;55.79;100847.09;5067941;27;98774;-73
2023/03/05 05:50:31;;;;;;;13.68;3.75;;;;;;;5.51;55.98;100853.25;5066890;27;99028;-73
2023/03/05 05:52:57;;;;;;;9.07;1.30;;;;;;;5.80;55.67;100860.75;5063400;27;99245;-73
2023/03/05 05:55:24;;;;;;;7.18;1.10;;;;;;;5.99;54.97;100856.13;5063316;27;98624;-73
2023/03/05 05:57:50;;;;;;;17.10;2.20;;;;;;;6.07;54.63;100863.88;5064867;27;97746;-72
2023/03/05 06:00:17;;;;;;;8.30;1.13;;;;;;;5.79;55.35;100869.50;5066041;27;101574;-74
2023/03/05 06:02:44;;;;;;;11.50;1.83;;;;;;;5.87;55.57;100854.56;5067373;27;99420;-73
2023/03/05 06:05:14;;;;;;;10.30;1.50;;;;;;;5.83;55.35;100858.09;5064316;27;97187;-73
2023/03/05 06:07:41;;;;;;;12.75;3.42;;;;;;;5.65;55.97;100855.72;5068525;27;99069;-73
2023/03/05 06:10:09;;;;;;;11.50;1.80;;;;;;;5.80;55.59;100865.13;5058529;27;100204;-72
2023/03/05 06:12:36;;;;;;;6.88;1.02;;;;;;;5.79;55.98;100852.91;5068516;27;101432;-72
2023/03/05 06:15:02;;;;;;;7.43;1.02;;;;;;;5.95;55.60;100851.84;5066966;27;98862;-73
2023/03/05 06:17:29;;;;;;;9.77;1.20;;;;;;;6.02;54.88;100852.59;5061757;27;96851;-73
2023/03/05 06:19:55;;;;;;;9.27;1.58;;;;;;;6.31;54.59;100843.38;5066559;27;99161;-74
2023/03/05 06:22:23;;;;;;;11.57;1.60;;;;;;;6.39;53.91;100843.25;5069139;27;99371;-73
2023/03/05 06:24:49;;;;;;;11.95;2.17;;;;;;;6.68;53.53;100833.13;5067840;27;97339;-74
2023/03/05 06:27:16;;;;;;;11.05;1.98;;;;;;;6.27;53.93;100831.19;5055499;27;97049;-74
2023/03/05 06:29:42;;;;;;;9.48;1.70;;;;;;;6.16;54.92;100841.00;5062923;27;101948;-73
2023/03/05 06:32:09;;;;;;;6.50;0.95;;;;;;;6.48;54.21;100835.22;5061574;27;99370;-74
2023/03/05 06:34:35;;;;;;;5.40;0.93;;;;;;;6.67;53.62;100843.63;5054997;27;96941;-74
2023/03/05 06:37:02;;;;;;;9.75;1.25;;;;;;;7.00;52.89;100844.78;5059185;27;97634;-74
2023/03/05 06:39:30;;;;;;;9.00;1.80;;;;;;;6.83;52.96;100837.19;5057490;27;98909;-74
2023/03/05 06:41:57;;;;;;;7.20;1.33;;;;;;;6.87;52.92;100844.16;5056726;27;98857;-74
2023/03/05 06:44:24;;;;;;;10.65;1.33;;;;;;;7.08;52.54;100854.25;5065900;27;97089;-74
2023/03/05 06:46:50;;;;;;;11.18;1.70;;;;;;;6.64;53.42;100843.69;5059524;27;96923;-73
2023/03/05 06:49:17;;;;;;;11.32;1.50;;;;;;;6.71;53.26;100843.53;5064311;27;101516;-73
2023/03/05 06:51:43;;;;;;;7.97;1.10;;;;;;;7.08;52.45;100841.13;5064990;27;101428;-72
2023/03/05 06:54:14;;;;;;;9.95;1.25;;;;;;;6.47;53.41;100836.13;5066271;27;96778;-73
2023/03/05 06:56:45;;;;;;;8.02;1.50;;;;;;;6.76;53.11;100839.06;5064797;27;97049;-72
2023/03/05 06:59:12;;;;;;;10.32;1.50;;;;;;;6.81;52.73;100839.00;5064101;27;98631;-72
2023/03/05 07:01:39;;;;;;;5.07;1.02;;;;;;;6.94;52.28;100851.00;5061469;27;98863;-72
2023/03/05 07:04:06;;;;;;;7.88;1.40;;;;;;;6.76;52.42;100852.19;5063720;27;97280;-73
2023/03/05 07:06:34;;;;;;;5.60;1.23;;;;;;;6.77;52.53;100842.56;5063607;27;96879;-73
2023/03/05 07:09:01;;;;;;;8.50;2.20;;;;;;;7.26;51.49;100842.50;5066202;27;99378;-73
2023/03/05 07:11:28;;;;;;;8.07;1.30;;;;;;;7.59;50.69;100840.91;5066857;27;97925;-73
2023/03/05 07:13:56;;;;;;;6.03;1.48;;;;;;;7.65;49.92;100834.66;5065778;27;97692;-73
2023/03/05 07:16:25;;;;;;;5.30;1.27;;;;;;;7.29;50.53;100847.66;5063394;27;97449;-72
2023/03/05 07:18:52;;;;;;;4.65;1.10;;;;;;;6.74;51.42;100848.75;5061330;27;98298;-72
2023/03/05 07:21:20;;;;;;;6.15;1.48;;;;;;;6.87;51.63;100848.53;5066663;27;97805;-73
2023/03/05 07:23:47;;;;;;;9.50;1.35;;;;;;;6.87;51.08;100859.03;5067057;27;97186;-72
2023/03/05 07:26:15;;;;;;;8.02;1.13;;;;;;;6.30;52.24;100848.66;5066958;27;97470;-73
2023/03/05 07:28:42;;;;;;;4.55;1.10;;;;;;;6.40;52.11;100845.84;5057475;27;98972;-73
2023/03/05 07:31:13;;;;;;;5.47;1.30;;;;;;;6.29;52.09;100847.78;5063713;27;99406;-73
2023/03/05 07:33:40;;;;;;;8.38;1.27;;;;;;;6.58;52.37;100849.03;5064770;27;96875;-72
2023/03/05 07:36:08;;;;;;;5.18;0.90;;;;;;;6.22;52.40;100850.53;5070165;27;97180;-73
2023/03/05 07:38:35;;;;;;;8.02;0.90;;;;;;;6.23;52.14;100854.91;5062515;27;100034;-73
2023/03/05 07:41:03;;;;;;;7.18;0.90;;;;;;;6.55;51.75;100863.09;5061923;27;98273;-72
2023/03/05 07:43:29;;;;;;;8.50;1.05;;;;;;;6.33;51.98;100851.22;5070204;27;99367;-72
2023/03/05 07:45:56;;;;;;;8.98;1.63;;;;;;;6.61;51.61;100855.13;5063687;27;98216;-73
2023/03/05 07:48:24;;;;;;;8.43;1.27;;;;;;;6.52;51.42;100857.91;5070789;27;98860;-72
2023/03/05 07:50:50;;;;;;;7.65;1.20;;;;;;;6.39;51.92;100849.38;5067340;27;99832;-73
2023/03/05 07:53:17;;;;;;;7.55;1.27;;;;;;;6.48;51.39;100845.72;5066011;27;98106;-73
2023/03/05 07:55:43;;;;;;;9.60;2.03;;;;;;;6.90;50.44;100844.06;5063333;27;97341;-73
2023/03/05 07:58:10;;;;;;;4.18;1.15;;;;;;;7.11;49.70;100855.94;5069126;27;98866;-72
2023/03/05 08:00:37;;;;;;;9.00;2.17;;;;;;;6.95;49.67;100859.75;5062969;27;98177;-72
2023/03/05 08:03:03;;;;;;;4.80;1.05;;;;;;;6.71;50.07;100848.81;5064720;27;98967;-71
2023/03/05 08:05:31;;;;;;;4.63;1.15;;;;;;;6.63;50.01;100850.69;5062201;27;97469;-72
2023/03/05 08:07:58;;;;;;;6.82;0.85;;;;;;;6.65;49.88;100851.53;5066417;27;99035;-73
2023/03/05 08:10:24;;;;;;;6.35;1.60;;;;;;;6.96;49.42;100854.47;5066622;27;98842;-73
2023/03/05 08:12:51;;;;;;;6.75;1.35;;;;;;;7.25;48.64;100853.03;5066540;27;98558;-72
2023/03/05 08:15:17;;;;;;;4.40;0.93;;;;;;;7.53;47.33;100852.44;5064617;27;97956;-73
2023/03/05 08:17:44;;;;;;;9.45;1.35;;;;;;;7.71;47.14;100860.81;5066714;27;99769;-71
2023/03/05 08:20:11;;;;;;;6.28;1.10;;;;;;;7.78;46.39;100842.25;5064623;27;98843;-72
2023/03/05 08:22:39;;;;;;;9.60;1.20;;;;;;;7.55;46.67;100840.09;5059534;27;96866;-72
2023/03/05 08:25:07;;;;;;;11.50;1.63;;;;;;;8.11;46.13;100840.59;5060754;27;97743;-72
2023/03/05 08:27:34;;;;;;;9.82;1.50;;;;;;;8.21;44.97;100826.28;5059808;27;99606;-72
2023/03/05 08:30:02;;;;;;;4.20;0.82;;;;;;;7.54;46.08;100827.00;5059759;27;99201;-72
2023/03/05 08:32:28;;;;;;;7.10;2.75;;;;;;;8.10;45.23;100823.06;5057360;27;97762;-72
2023/03/05 08:34:57;;;;;;;8.05;1.30;;;;;;;8.40;44.24;100827.59;5058612;27;98887;-73
2023/03/05 08:37:23;;;;;;;5.65;1.00;;;;;;;8.75;42.76;100816.16;5058953;27;98945;-73
2023/03/05 08:39:51;;;;;;;8.73;1.35;;;;;;;8.68;42.85;100821.63;5058906;27;100661;-73
2023/03/05 08:42:18;;;;;;;3.72;0.98;;;;;;;8.24;42.37;100820.09;5060107;27;96919;-73
2023/03/05 08:44:44;;;;;;;12.68;1.20;;;;;;;8.67;41.36;100817.25;5058992;27;97819;-74
2023/03/05 08:47:11;;;;;;;5.57;1.10;;;;;;;8.24;41.68;100812.22;5061555;27;99155;-72
2023/03/05 08:49:37;;;;;;;4.97;1.13;;;;;;;7.77;43.09;100808.06;5063354;27;101732;-73
2023/03/05 08:52:04;;;;;;;6.57;1.08;;;;;;;8.08;42.72;100805.56;5063985;27;98894;-73
2023/03/05 08:54:30;;;;;;;8.70;2.33;;;;;;;8.73;41.73;100807.41;5060790;27;98380;-73
2023/03/05 08:56:58;;;;;;;6.97;0.90;;;;;;;8.64;41.23;100793.66;5060747;27;101419;-74
2023/03/05 08:59:24;;;;;;;8.10;0.82;;;;;;;8.71;41.13;100796.06;5057379;27;98909;-74
2023/03/05 09:01:51;;;;;;;6.40;1.13;;;;;;;8.68;41.07;100788.25;5062281;27;96846;-73
2023/03/05 09:04:18;;;;;;;7.65;1.17;;;;;;;8.33;41.12;100794.47;5060119;27;98129;-72
2023/03/05 09:06:44;;;;;;;8.23;1.10;;;;;;;8.59;41.26;100798.19;5060297;27;100330;-73
2023/03/05 09:09:12;;;;;;;3.40;0.80;;;;;;;8.82;40.92;100798.41;5061770;27;99311;-73
2023/03/05 09:11:38;;;;;;;5.47;0.80;;;;;;;9.11;40.35;100797.59;5065376;27;96958;-74
2023/03/05 09:14:07;;;;;;;6.50;1.42;;;;;;;9.21;40.31;100796.41;5058703;27;98558;-73
2023/03/05 09:16:34;;;;;;;3.53;0.90;;;;;;;9.16;38.09;100793.94;5055568;27;100851;-73
2023/03/05 09:19:04;;;;;;;5.93;1.45;;;;;;;9.33;38.97;100796.06;5062881;27;99374;-74
2023/03/05 09:21:31;;;;;;;6.88;1.20;;;;;;;9.43;38.00;100801.94;5065638;27;97025;-73
2023/03/05 09:23:59;;;;;;;4.85;1.00;;;;;;;9.68;37.02;100795.00;5067426;27;97433;-73
2023/03/05 09:26:26;;;;;;;3.88;0.75;;;;;;;9.09;37.05;100787.09;5065195;27;99313;-74
2023/03/05 09:28:52;;;;;;;7.10;0.95;;;;;;;9.16;36.82;100790.41;5066706;27;98838;-73
2023/03/05 09:31:20;;;;;;;6.93;1.52;;;;;;;9.25;37.15;100786.66;5059145;27;98718;-74
2023/03/05 09:33:48;;;;;;;9.43;1.02;;;;;;;9.12;38.04;100787.00;5064660;27;96967;-75
2023/03/05 09:36:19;;;;;;;4.45;1.15;;;;;;;9.38;37.60;100777.47;5058005;27;98872;-74
2023/03/05 09:38:49;;;;;;;5.50;1.15;;;;;;;9.62;37.59;100782.00;5059397;27;99607;-75
2023/03/05 09:41:24;;;;;;;7.07;1.15;;;;;;;9.33;37.82;100782.88;5062166;27;97146;-75
2023/03/05 09:43:58;;;;;;;9.75;1.58;;;;;;;9.30;38.15;100780.34;5061658;27;97254;-74
2023/03/05 09:46:39;;;;;;;6.68;1.23;;;;;;;9.20;38.70;100777.09;5066053;27;101709;-75
2023/03/05 09:49:16;;;;;;;8.07;1.10;;;;;;;9.51;38.41;100773.56;5062142;27;99085;-73
2023/03/05 09:51:46;;;;;;;12.02;1.75;;;;;;;9.63;37.60;100765.25;5066591;27;96860;-73
2023/03/05 09:54:17;;;;;;;5.45;0.95;;;;;;;9.07;37.78;100766.94;5060511;27;97780;-74
2023/03/05 09:56:48;;;;;;;5.70;1.05;;;;;;;9.10;38.21;100770.38;5064027;27;99128;-74
2023/03/05 09:59:23;;;;;;;2.83;1.10;;;;;;;9.29;38.08;100767.19;5063234;27;100413;-73
2023/03/05 10:01:53;;;;;;;7.72;1.33;;;;;;;9.68;37.38;100758.06;5066000;27;97704;-72
2023/03/05 10:04:26;;;;;;;8.35;1.52;;;;;;;8.90;37.87;100772.72;5058011;27;97930;-74
2023/03/05 10:06:56;;;;;;;4.47;0.90;;;;;;;8.69;38.28;100773.31;5070293;27;98949;-73
2023/03/05 10:09:41;;;;;;;6.05;1.00;;;;;;;8.28;39.23;100775.22;5063096;27;99235;-74
2023/03/05 10:12:15;;;;;;;8.48;1.02;;;;;;;8.26;39.25;100765.66;5062832;27;98466;-75
2023/03/05 10:14:41;;;;;;;10.02;1.30;;;;;;;8.97;38.60;100760.22;5064851;27;97643;-74
2023/03/05 10:17:36;;;;;;;6.03;1.10;;;;;;;9.10;38.21;100757.19;5065426;27;98967;-74
2023/03/05 10:20:41;;;;;;;3.95;1.10;;;;;;;8.97;38.27;100758.47;5061188;27;98784;-74
2023/03/05 10:23:28;;;;;;;2.53;1.00;;;;;;;8.95;38.22;100752.38;5014965;27;98537;-74
2023/03/05 10:25:58;;;;;;;;;;;;;;;8.87;38.02;100754.34;5059129;27;97102;-74
2023/03/05 10:28:33;;;;;;;4.63;1.00;;;;;;;8.28;39.60;100746.25;5062465;27;100647;-73
2023/03/05 10:31:15;;;;;;;7.87;1.10;;;;;;;8.54;39.41;100756.13;5063554;27;98908;-73
2023/03/05 10:33:54;;;;;;;6.82;1.38;;;;;;;8.24;40.58;100747.25;5057918;27;97304;-74
2023/03/05 10:36:45;;;;;;;3.90;0.98;;;;;;;8.62;40.97;100764.72;5065850;27;97131;-74
2023/03/05 10:39:35;;;;;;;6.38;1.08;;;;;;;8.44;43.07;100766.97;5060613;27;99531;-73
2023/03/05 10:42:08;;;;;;;7.13;1.08;;;;;;;8.43;44.70;100758.19;5045878;27;99170;-73
2023/03/05 10:44:39;;;;;;;8.95;1.60;;;;;;;8.72;44.76;100749.53;5061814;27;97597;-73
2023/03/05 10:47:16;;;;;;;8.23;1.50;;;;;;;9.19;43.74;100750.78;5060192;27;99016;-73
2023/03/05 10:49:50;;;;;;;5.80;1.45;;;;;;;8.02;46.08;100739.03;5065065;27;99226;-75
2023/03/05 10:52:20;;;;;;;8.70;1.60;;;;;;;8.42;45.34;100737.16;5061543;27;99485;-75
2023/03/05 10:54:47;;;;;;;4.85;2.22;;;;;;;8.65;45.06;100742.69;5059252;27;98708;-74
2023/03/05 10:57:18;;;;;;;7.53;2.63;;;;;;;8.82;44.83;100729.03;5061331;27;97101;-74
2023/03/05 10:59:49;;;;;;;10.15;1.67;;;;;;;8.84;43.25;100720.19;5062062;27;99040;-74
2023/03/05 11:02:16;;;;;;;7.45;1.50;;;;;;;8.89;43.47;100736.72;5062369;27;98846;-74
2023/03/05 11:04:43;;;;;;;5.28;1.27;;;;;;;9.03;42.25;100731.06;5058750;27;96975;-72
2023/03/05 11:07:33;;;;;;;4.25;1.50;;;;;;;8.96;42.29;100740.06;5065437;27;98581;-71
2023/03/05 11:10:06;;;;;;;5.70;1.33;;;;;;;8.36;44.19;100736.44;5059461;27;99290;-71
2023/03/05 11:12:35;;;;;;;4.90;1.23;;;;;;;8.92;42.80;100730.53;5061688;27;99294;-71
2023/03/05 11:15:06;;;;;;;7.03;1.20;;;;;;;9.05;42.51;100724.84;5058325;27;98960;-71
2023/03/05 11:17:36;;;;;;;6.95;1.50;;;;;;;9.56;42.97;100729.44;5052291;27;96981;-71
2023/03/05 11:20:29;;;;;;;12.02;3.17;;;;;;;10.03;42.51;100719.97;5057172;27;99259;-73
2023/03/05 11:23:11;;;;;;;8.20;1.65;;;;;;;10.12;40.76;100716.13;5058629;27;98964;-73
2023/03/05 11:25:56;;;;;;;4.45;1.25;;;;;;;9.26;41.23;100715.41;5060024;27;96874;-71
2023/03/05 11:28:26;;;;;;;6.97;2.45;;;;;;;9.39;41.97;100711.47;5061131;27;96881;-71
2023/03/05 11:30:59;;;;;;;8.00;3.50;;;;;;;9.14;42.29;100714.00;5060260;27;101449;-72
2023/03/05 11:33:26;;;;;;;7.13;1.30;;;;;;;8.89;41.70;100715.66;5057630;27;99700;-70
2023/03/05 11:36:09;;;;;;;10.43;1.70;;;;;;;8.47;42.69;100703.72;5068254;27;96875;-73